sensor_id;sensor_type;location;lat;lon;timestamp;P1;durP1;ratioP1;P2;durP2;ratioP2
26965;SDS011;14522;52.068;4.414;2023-05-14T00:01:13;15.25;;;9.90;;
26965;SDS011;14522;52.068;4.414;2023-05-14T00:03:40;16.92;;;8.93;;
26965;SDS011;14522;52.068;4.414;2023-05-14T00:06:06;21.98;;;9.27;;
26965;SDS011;14522;52.068;4.414;2023-05-14T00:08:34;16.50;;;9.43;;
26965;SDS011;14522;52.068;4.414;2023-05-14T00:11:00;16.08;;;9.88;;
26965;SDS011;14522;52.068;4.414;2023-05-14T00:13:27;13.43;;;7.72;;
26965;SDS011;14522;52.068;4.414;2023-05-14T00:15:54;15.30;;;9.65;;
26965;SDS011;14522;52.068;4.414;2023-05-14T00:18:20;13.00;;;7.60;;
26965;SDS011;14522;52.068;4.414;2023-05-14T00:20:47;15.60;;;8.98;;
26965;SDS011;14522;52.068;4.414;2023-05-14T00:23:13;16.25;;;9.60;;
26965;SDS011;14522;52.068;4.414;2023-05-14T00:25:39;12.93;;;8.15;;
26965;SDS011;14522;52.068;4.414;2023-05-14T00:28:06;11.85;;;8.38;;
26965;SDS011;14522;52.068;4.414;2023-05-14T00:30:32;11.73;;;7.47;;
26965;SDS011;14522;52.068;4.414;2023-05-14T00:33:00;16.90;;;8.85;;
26965;SDS011;14522;52.068;4.414;2023-05-14T00:35:26;22.35;;;9.40;;
26965;SDS011;14522;52.068;4.414;2023-05-14T00:37:53;16.25;;;9.13;;
26965;SDS011;14522;52.068;4.414;2023-05-14T00:40:19;14.32;;;8.75;;
26965;SDS011;14522;52.068;4.414;2023-05-14T00:42:48;10.20;;;5.43;;
26965;SDS011;14522;52.068;4.414;2023-05-14T00:45:14;12.32;;;7.97;;
26965;SDS011;14522;52.068;4.414;2023-05-14T00:47:41;17.75;;;8.63;;
26965;SDS011;14522;52.068;4.414;2023-05-14T00:50:07;17.83;;;9.82;;
26965;SDS011;14522;52.068;4.414;2023-05-14T00:52:34;21.20;;;10.90;;
26965;SDS011;14522;52.068;4.414;2023-05-14T00:55:02;20.10;;;10.13;;
26965;SDS011;14522;52.068;4.414;2023-05-14T00:57:29;19.15;;;10.63;;
26965;SDS011;14522;52.068;4.414;2023-05-14T00:59:55;20.23;;;11.02;;
26965;SDS011;14522;52.068;4.414;2023-05-14T01:02:22;12.63;;;7.85;;
26965;SDS011;14522;52.068;4.414;2023-05-14T01:04:48;15.80;;;9.02;;
26965;SDS011;14522;52.068;4.414;2023-05-14T01:10:01;22.65;;;10.05;;
26965;SDS011;14522;52.068;4.414;2023-05-14T01:15:08;22.48;;;11.07;;
26965;SDS011;14522;52.068;4.414;2023-05-14T01:17:43;18.38;;;8.98;;
26965;SDS011;14522;52.068;4.414;2023-05-14T01:20:11;16.38;;;10.18;;
26965;SDS011;14522;52.068;4.414;2023-05-14T01:22:37;19.20;;;9.95;;
26965;SDS011;14522;52.068;4.414;2023-05-14T01:25:04;15.15;;;9.23;;
26965;SDS011;14522;52.068;4.414;2023-05-14T01:27:40;14.57;;;9.23;;
26965;SDS011;14522;52.068;4.414;2023-05-14T01:30:18;17.65;;;9.23;;
26965;SDS011;14522;52.068;4.414;2023-05-14T01:32:47;15.23;;;8.88;;
26965;SDS011;14522;52.068;4.414;2023-05-14T01:35:16;18.85;;;10.18;;
26965;SDS011;14522;52.068;4.414;2023-05-14T01:37:43;15.93;;;9.35;;
26965;SDS011;14522;52.068;4.414;2023-05-14T01:40:09;17.50;;;8.73;;
26965;SDS011;14522;52.068;4.414;2023-05-14T01:42:37;14.68;;;8.45;;
26965;SDS011;14522;52.068;4.414;2023-05-14T01:45:03;13.93;;;8.02;;
26965;SDS011;14522;52.068;4.414;2023-05-14T01:47:30;12.38;;;6.75;;
26965;SDS011;14522;52.068;4.414;2023-05-14T01:49:56;15.73;;;9.02;;
26965;SDS011;14522;52.068;4.414;2023-05-14T01:52:23;17.35;;;9.07;;
26965;SDS011;14522;52.068;4.414;2023-05-14T01:54:49;14.38;;;8.35;;
26965;SDS011;14522;52.068;4.414;2023-05-14T01:57:15;16.50;;;6.55;;
26965;SDS011;14522;52.068;4.414;2023-05-14T01:59:42;17.52;;;9.55;;
26965;SDS011;14522;52.068;4.414;2023-05-14T02:02:08;16.58;;;9.75;;
26965;SDS011;14522;52.068;4.414;2023-05-14T02:04:35;8.77;;;4.90;;
26965;SDS011;14522;52.068;4.414;2023-05-14T02:07:01;15.05;;;8.75;;
26965;SDS011;14522;52.068;4.414;2023-05-14T02:09:27;19.08;;;10.02;;
26965;SDS011;14522;52.068;4.414;2023-05-14T02:11:54;16.48;;;7.75;;
26965;SDS011;14522;52.068;4.414;2023-05-14T02:14:20;12.77;;;7.05;;
26965;SDS011;14522;52.068;4.414;2023-05-14T02:16:47;10.98;;;6.90;;
26965;SDS011;14522;52.068;4.414;2023-05-14T02:19:13;13.77;;;8.02;;
26965;SDS011;14522;52.068;4.414;2023-05-14T02:21:40;11.55;;;7.82;;
26965;SDS011;14522;52.068;4.414;2023-05-14T02:24:06;9.85;;;6.45;;
26965;SDS011;14522;52.068;4.414;2023-05-14T02:26:33;15.43;;;7.57;;
26965;SDS011;14522;52.068;4.414;2023-05-14T02:28:59;14.57;;;8.07;;
26965;SDS011;14522;52.068;4.414;2023-05-14T02:31:26;18.85;;;8.10;;
26965;SDS011;14522;52.068;4.414;2023-05-14T02:33:52;17.35;;;8.77;;
26965;SDS011;14522;52.068;4.414;2023-05-14T02:36:19;14.40;;;7.57;;
26965;SDS011;14522;52.068;4.414;2023-05-14T02:38:45;11.63;;;6.90;;
26965;SDS011;14522;52.068;4.414;2023-05-14T02:41:11;13.52;;;7.82;;
26965;SDS011;14522;52.068;4.414;2023-05-14T02:43:38;16.58;;;7.70;;
26965;SDS011;14522;52.068;4.414;2023-05-14T02:46:04;14.73;;;7.93;;
26965;SDS011;14522;52.068;4.414;2023-05-14T02:48:31;12.27;;;5.97;;
26965;SDS011;14522;52.068;4.414;2023-05-14T02:50:57;18.83;;;8.02;;
26965;SDS011;14522;52.068;4.414;2023-05-14T02:53:23;9.90;;;5.88;;
26965;SDS011;14522;52.068;4.414;2023-05-14T02:55:50;14.77;;;6.60;;
26965;SDS011;14522;52.068;4.414;2023-05-14T02:58:16;15.15;;;7.00;;
26965;SDS011;14522;52.068;4.414;2023-05-14T03:00:42;12.23;;;6.53;;
26965;SDS011;14522;52.068;4.414;2023-05-14T03:03:09;16.83;;;6.82;;
26965;SDS011;14522;52.068;4.414;2023-05-14T03:05:36;12.32;;;5.53;;
26965;SDS011;14522;52.068;4.414;2023-05-14T03:08:02;22.70;;;6.68;;
26965;SDS011;14522;52.068;4.414;2023-05-14T03:10:29;13.38;;;7.75;;
26965;SDS011;14522;52.068;4.414;2023-05-14T03:12:56;17.85;;;8.75;;
26965;SDS011;14522;52.068;4.414;2023-05-14T03:15:22;11.13;;;7.05;;
26965;SDS011;14522;52.068;4.414;2023-05-14T03:17:49;12.20;;;6.38;;
26965;SDS011;14522;52.068;4.414;2023-05-14T03:20:15;18.25;;;7.28;;
26965;SDS011;14522;52.068;4.414;2023-05-14T03:22:41;17.52;;;7.90;;
26965;SDS011;14522;52.068;4.414;2023-05-14T03:25:08;13.60;;;6.38;;
26965;SDS011;14522;52.068;4.414;2023-05-14T03:27:34;7.43;;;4.75;;
26965;SDS011;14522;52.068;4.414;2023-05-14T03:30:01;11.70;;;6.07;;
26965;SDS011;14522;52.068;4.414;2023-05-14T03:32:27;15.20;;;7.85;;
26965;SDS011;14522;52.068;4.414;2023-05-14T03:34:54;17.83;;;8.20;;
26965;SDS011;14522;52.068;4.414;2023-05-14T03:37:21;12.00;;;6.03;;
26965;SDS011;14522;52.068;4.414;2023-05-14T03:39:48;12.50;;;5.70;;
26965;SDS011;14522;52.068;4.414;2023-05-14T03:42:14;8.70;;;5.90;;
26965;SDS011;14522;52.068;4.414;2023-05-14T03:44:41;18.42;;;8.20;;
26965;SDS011;14522;52.068;4.414;2023-05-14T03:47:07;17.75;;;7.30;;
26965;SDS011;14522;52.068;4.414;2023-05-14T03:49:33;12.13;;;6.97;;
26965;SDS011;14522;52.068;4.414;2023-05-14T03:52:00;9.35;;;6.03;;
26965;SDS011;14522;52.068;4.414;2023-05-14T03:54:26;12.73;;;6.78;;
26965;SDS011;14522;52.068;4.414;2023-05-14T03:56:53;18.30;;;5.93;;
26965;SDS011;14522;52.068;4.414;2023-05-14T03:59:19;11.55;;;7.60;;
26965;SDS011;14522;52.068;4.414;2023-05-14T04:01:45;13.13;;;6.45;;
26965;SDS011;14522;52.068;4.414;2023-05-14T04:04:12;18.30;;;7.50;;
26965;SDS011;14522;52.068;4.414;2023-05-14T04:06:38;13.27;;;7.82;;
26965;SDS011;14522;52.068;4.414;2023-05-14T04:09:05;13.43;;;6.28;;
26965;SDS011;14522;52.068;4.414;2023-05-14T04:11:31;17.40;;;7.68;;
26965;SDS011;14522;52.068;4.414;2023-05-14T04:13:57;16.65;;;8.55;;
26965;SDS011;14522;52.068;4.414;2023-05-14T04:16:24;14.52;;;7.80;;
26965;SDS011;14522;52.068;4.414;2023-05-14T04:18:50;16.08;;;8.30;;
26965;SDS011;14522;52.068;4.414;2023-05-14T04:21:17;8.43;;;4.97;;
26965;SDS011;14522;52.068;4.414;2023-05-14T04:23:43;12.43;;;7.55;;
26965;SDS011;14522;52.068;4.414;2023-05-14T04:26:10;15.77;;;8.10;;
26965;SDS011;14522;52.068;4.414;2023-05-14T04:28:36;18.15;;;8.15;;
26965;SDS011;14522;52.068;4.414;2023-05-14T04:31:02;20.83;;;8.70;;
26965;SDS011;14522;52.068;4.414;2023-05-14T04:33:29;12.95;;;7.07;;
26965;SDS011;14522;52.068;4.414;2023-05-14T04:35:56;14.07;;;7.65;;
26965;SDS011;14522;52.068;4.414;2023-05-14T04:38:22;16.70;;;8.15;;
26965;SDS011;14522;52.068;4.414;2023-05-14T04:40:49;16.88;;;9.02;;
26965;SDS011;14522;52.068;4.414;2023-05-14T04:43:15;16.70;;;8.85;;
26965;SDS011;14522;52.068;4.414;2023-05-14T04:45:42;15.32;;;7.75;;
26965;SDS011;14522;52.068;4.414;2023-05-14T04:48:09;14.57;;;6.90;;
26965;SDS011;14522;52.068;4.414;2023-05-14T04:50:35;13.65;;;6.35;;
26965;SDS011;14522;52.068;4.414;2023-05-14T04:53:02;18.75;;;9.75;;
26965;SDS011;14522;52.068;4.414;2023-05-14T04:55:28;15.27;;;8.45;;
26965;SDS011;14522;52.068;4.414;2023-05-14T04:57:54;19.73;;;9.77;;
26965;SDS011;14522;52.068;4.414;2023-05-14T05:00:21;16.25;;;10.57;;
26965;SDS011;14522;52.068;4.414;2023-05-14T05:02:48;14.35;;;9.48;;
26965;SDS011;14522;52.068;4.414;2023-05-14T05:05:15;16.83;;;10.10;;
26965;SDS011;14522;52.068;4.414;2023-05-14T05:07:41;20.70;;;12.48;;
26965;SDS011;14522;52.068;4.414;2023-05-14T05:10:08;21.98;;;12.95;;
26965;SDS011;14522;52.068;4.414;2023-05-14T05:12:34;20.75;;;12.82;;
26965;SDS011;14522;52.068;4.414;2023-05-14T05:15:00;21.02;;;13.85;;
26965;SDS011;14522;52.068;4.414;2023-05-14T05:17:27;20.52;;;12.57;;
26965;SDS011;14522;52.068;4.414;2023-05-14T05:19:54;11.88;;;5.78;;
26965;SDS011;14522;52.068;4.414;2023-05-14T05:22:20;22.70;;;15.45;;
26965;SDS011;14522;52.068;4.414;2023-05-14T05:24:46;23.85;;;15.43;;
26965;SDS011;14522;52.068;4.414;2023-05-14T05:27:15;22.10;;;13.52;;
26965;SDS011;14522;52.068;4.414;2023-05-14T05:29:42;27.77;;;17.15;;
26965;SDS011;14522;52.068;4.414;2023-05-14T05:32:08;24.88;;;17.38;;
26965;SDS011;14522;52.068;4.414;2023-05-14T05:34:36;30.63;;;17.17;;
26965;SDS011;14522;52.068;4.414;2023-05-14T05:37:03;28.95;;;17.67;;
26965;SDS011;14522;52.068;4.414;2023-05-14T05:39:31;25.52;;;17.27;;
26965;SDS011;14522;52.068;4.414;2023-05-14T05:42:00;29.58;;;18.58;;
26965;SDS011;14522;52.068;4.414;2023-05-14T05:44:27;21.40;;;13.25;;
26965;SDS011;14522;52.068;4.414;2023-05-14T05:46:53;27.30;;;15.45;;
26965;SDS011;14522;52.068;4.414;2023-05-14T05:49:22;29.40;;;18.85;;
26965;SDS011;14522;52.068;4.414;2023-05-14T05:51:49;32.08;;;18.10;;
26965;SDS011;14522;52.068;4.414;2023-05-14T05:54:15;24.63;;;15.85;;
26965;SDS011;14522;52.068;4.414;2023-05-14T05:56:42;20.48;;;13.32;;
26965;SDS011;14522;52.068;4.414;2023-05-14T05:59:08;20.17;;;13.75;;
26965;SDS011;14522;52.068;4.414;2023-05-14T06:01:35;24.58;;;15.77;;
26965;SDS011;14522;52.068;4.414;2023-05-14T06:04:01;22.40;;;14.27;;
26965;SDS011;14522;52.068;4.414;2023-05-14T06:06:29;17.38;;;11.32;;
26965;SDS011;14522;52.068;4.414;2023-05-14T06:08:57;17.13;;;11.02;;
26965;SDS011;14522;52.068;4.414;2023-05-14T06:11:24;17.67;;;10.60;;
26965;SDS011;14522;52.068;4.414;2023-05-14T06:13:50;13.18;;;8.95;;
26965;SDS011;14522;52.068;4.414;2023-05-14T06:16:16;13.68;;;8.43;;
26965;SDS011;14522;52.068;4.414;2023-05-14T06:18:43;11.40;;;7.57;;
26965;SDS011;14522;52.068;4.414;2023-05-14T06:21:09;12.98;;;7.80;;
26965;SDS011;14522;52.068;4.414;2023-05-14T06:23:36;9.95;;;6.80;;
26965;SDS011;14522;52.068;4.414;2023-05-14T06:26:02;15.70;;;8.27;;
26965;SDS011;14522;52.068;4.414;2023-05-14T06:28:29;14.27;;;8.25;;
26965;SDS011;14522;52.068;4.414;2023-05-14T06:30:55;15.02;;;7.20;;
26965;SDS011;14522;52.068;4.414;2023-05-14T06:33:21;15.25;;;7.43;;
26965;SDS011;14522;52.068;4.414;2023-05-14T06:35:55;16.60;;;7.88;;
26965;SDS011;14522;52.068;4.414;2023-05-14T06:38:22;16.88;;;8.23;;
26965;SDS011;14522;52.068;4.414;2023-05-14T06:40:48;18.17;;;8.10;;
26965;SDS011;14522;52.068;4.414;2023-05-14T06:43:14;12.75;;;7.43;;
26965;SDS011;14522;52.068;4.414;2023-05-14T06:45:41;13.55;;;6.55;;
26965;SDS011;14522;52.068;4.414;2023-05-14T06:48:07;16.52;;;8.63;;
26965;SDS011;14522;52.068;4.414;2023-05-14T06:50:35;18.17;;;7.97;;
26965;SDS011;14522;52.068;4.414;2023-05-14T06:53:01;13.35;;;7.10;;
26965;SDS011;14522;52.068;4.414;2023-05-14T06:55:28;12.95;;;7.20;;
26965;SDS011;14522;52.068;4.414;2023-05-14T06:57:54;14.18;;;6.50;;
26965;SDS011;14522;52.068;4.414;2023-05-14T07:00:21;12.57;;;6.03;;
26965;SDS011;14522;52.068;4.414;2023-05-14T07:02:48;22.65;;;5.88;;
26965;SDS011;14522;52.068;4.414;2023-05-14T07:05:14;8.30;;;4.85;;
26965;SDS011;14522;52.068;4.414;2023-05-14T07:07:40;9.82;;;5.43;;
26965;SDS011;14522;52.068;4.414;2023-05-14T07:10:07;18.25;;;5.80;;
26965;SDS011;14522;52.068;4.414;2023-05-14T07:12:33;11.07;;;4.95;;
26965;SDS011;14522;52.068;4.414;2023-05-14T07:15:00;9.80;;;4.80;;
26965;SDS011;14522;52.068;4.414;2023-05-14T07:17:26;13.65;;;4.97;;
26965;SDS011;14522;52.068;4.414;2023-05-14T07:19:53;11.77;;;4.38;;
26965;SDS011;14522;52.068;4.414;2023-05-14T07:22:21;12.88;;;5.47;;
26965;SDS011;14522;52.068;4.414;2023-05-14T07:24:47;13.68;;;6.18;;
26965;SDS011;14522;52.068;4.414;2023-05-14T07:27:14;13.25;;;5.55;;
26965;SDS011;14522;52.068;4.414;2023-05-14T07:29:42;10.85;;;4.38;;
26965;SDS011;14522;52.068;4.414;2023-05-14T07:32:09;11.43;;;4.15;;
26965;SDS011;14522;52.068;4.414;2023-05-14T07:34:35;11.80;;;4.32;;
26965;SDS011;14522;52.068;4.414;2023-05-14T07:37:01;16.40;;;4.38;;
26965;SDS011;14522;52.068;4.414;2023-05-14T07:39:28;10.35;;;4.40;;
26965;SDS011;14522;52.068;4.414;2023-05-14T07:41:55;9.52;;;4.25;;
26965;SDS011;14522;52.068;4.414;2023-05-14T07:44:21;13.85;;;4.57;;
26965;SDS011;14522;52.068;4.414;2023-05-14T07:46:48;12.85;;;5.10;;
26965;SDS011;14522;52.068;4.414;2023-05-14T07:49:14;14.35;;;4.25;;
26965;SDS011;14522;52.068;4.414;2023-05-14T07:51:40;11.50;;;4.53;;
26965;SDS011;14522;52.068;4.414;2023-05-14T07:54:07;13.18;;;5.43;;
26965;SDS011;14522;52.068;4.414;2023-05-14T07:56:33;11.25;;;3.97;;
26965;SDS011;14522;52.068;4.414;2023-05-14T07:58:59;12.45;;;3.90;;
26965;SDS011;14522;52.068;4.414;2023-05-14T08:01:26;14.18;;;4.18;;
26965;SDS011;14522;52.068;4.414;2023-05-14T08:03:52;11.27;;;4.10;;
26965;SDS011;14522;52.068;4.414;2023-05-14T08:06:19;11.18;;;4.32;;
26965;SDS011;14522;52.068;4.414;2023-05-14T08:08:47;12.43;;;4.40;;
26965;SDS011;14522;52.068;4.414;2023-05-14T08:11:13;9.38;;;4.38;;
26965;SDS011;14522;52.068;4.414;2023-05-14T08:13:39;8.27;;;3.88;;
26965;SDS011;14522;52.068;4.414;2023-05-14T08:16:06;12.40;;;5.43;;
26965;SDS011;14522;52.068;4.414;2023-05-14T08:18:33;7.90;;;3.42;;
26965;SDS011;14522;52.068;4.414;2023-05-14T08:20:59;11.07;;;4.63;;
26965;SDS011;14522;52.068;4.414;2023-05-14T08:23:28;12.00;;;3.80;;
26965;SDS011;14522;52.068;4.414;2023-05-14T08:25:55;14.02;;;3.60;;
26965;SDS011;14522;52.068;4.414;2023-05-14T08:28:21;15.23;;;4.00;;
26965;SDS011;14522;52.068;4.414;2023-05-14T08:30:47;8.52;;;3.90;;
26965;SDS011;14522;52.068;4.414;2023-05-14T08:33:14;11.45;;;3.92;;
26965;SDS011;14522;52.068;4.414;2023-05-14T08:35:40;10.07;;;3.40;;
26965;SDS011;14522;52.068;4.414;2023-05-14T08:38:07;13.23;;;3.78;;
26965;SDS011;14522;52.068;4.414;2023-05-14T08:40:33;7.90;;;3.45;;
26965;SDS011;14522;52.068;4.414;2023-05-14T08:43:00;15.93;;;4.05;;
26965;SDS011;14522;52.068;4.414;2023-05-14T08:45:28;14.45;;;4.13;;
26965;SDS011;14522;52.068;4.414;2023-05-14T08:47:56;16.48;;;4.13;;
26965;SDS011;14522;52.068;4.414;2023-05-14T08:50:23;14.63;;;4.00;;
26965;SDS011;14522;52.068;4.414;2023-05-14T08:52:51;14.15;;;3.70;;
26965;SDS011;14522;52.068;4.414;2023-05-14T08:55:18;14.20;;;3.72;;
26965;SDS011;14522;52.068;4.414;2023-05-14T08:57:45;14.98;;;3.78;;
26965;SDS011;14522;52.068;4.414;2023-05-14T09:00:11;11.80;;;3.15;;
26965;SDS011;14522;52.068;4.414;2023-05-14T09:02:40;9.20;;;3.22;;
26965;SDS011;14522;52.068;4.414;2023-05-14T09:05:07;12.02;;;3.33;;
26965;SDS011;14522;52.068;4.414;2023-05-14T09:07:37;7.45;;;3.08;;
26965;SDS011;14522;52.068;4.414;2023-05-14T09:10:04;9.82;;;2.60;;
26965;SDS011;14522;52.068;4.414;2023-05-14T09:12:31;9.35;;;2.55;;
26965;SDS011;14522;52.068;4.414;2023-05-14T09:14:57;12.32;;;3.75;;
26965;SDS011;14522;52.068;4.414;2023-05-14T09:17:24;12.98;;;3.42;;
26965;SDS011;14522;52.068;4.414;2023-05-14T09:19:51;11.65;;;3.45;;
26965;SDS011;14522;52.068;4.414;2023-05-14T09:22:18;7.97;;;2.65;;
26965;SDS011;14522;52.068;4.414;2023-05-14T09:24:45;13.30;;;3.58;;
26965;SDS011;14522;52.068;4.414;2023-05-14T09:27:17;18.02;;;4.22;;
26965;SDS011;14522;52.068;4.414;2023-05-14T09:29:44;8.77;;;3.35;;
26965;SDS011;14522;52.068;4.414;2023-05-14T09:32:10;9.65;;;3.55;;
26965;SDS011;14522;52.068;4.414;2023-05-14T09:34:37;8.02;;;2.65;;
26965;SDS011;14522;52.068;4.414;2023-05-14T09:37:04;12.95;;;3.58;;
26965;SDS011;14522;52.068;4.414;2023-05-14T09:39:31;7.95;;;3.10;;
26965;SDS011;14522;52.068;4.414;2023-05-14T09:41:58;14.38;;;3.30;;
26965;SDS011;14522;52.068;4.414;2023-05-14T09:44:24;13.00;;;3.70;;
26965;SDS011;14522;52.068;4.414;2023-05-14T09:46:51;12.52;;;3.90;;
26965;SDS011;14522;52.068;4.414;2023-05-14T09:49:18;14.70;;;4.22;;
26965;SDS011;14522;52.068;4.414;2023-05-14T09:51:44;10.88;;;3.40;;
26965;SDS011;14522;52.068;4.414;2023-05-14T09:54:10;11.85;;;3.70;;
26965;SDS011;14522;52.068;4.414;2023-05-14T09:56:37;6.82;;;2.85;;
26965;SDS011;14522;52.068;4.414;2023-05-14T09:59:04;9.82;;;3.63;;
26965;SDS011;14522;52.068;4.414;2023-05-14T10:01:31;12.38;;;3.70;;
26965;SDS011;14522;52.068;4.414;2023-05-14T10:04:02;9.55;;;3.72;;
26965;SDS011;14522;52.068;4.414;2023-05-14T10:06:30;9.85;;;4.00;;
26965;SDS011;14522;52.068;4.414;2023-05-14T10:09:02;14.85;;;4.30;;
26965;SDS011;14522;52.068;4.414;2023-05-14T10:11:32;9.13;;;3.47;;
26965;SDS011;14522;52.068;4.414;2023-05-14T10:16:27;10.65;;;4.18;;
26965;SDS011;14522;52.068;4.414;2023-05-14T10:19:00;15.27;;;4.20;;
26965;SDS011;14522;52.068;4.414;2023-05-14T10:21:28;10.20;;;3.92;;
26965;SDS011;14522;52.068;4.414;2023-05-14T10:23:56;7.85;;;3.45;;
26965;SDS011;14522;52.068;4.414;2023-05-14T10:26:23;12.13;;;4.10;;
26965;SDS011;14522;52.068;4.414;2023-05-14T10:28:50;13.90;;;3.70;;
26965;SDS011;14522;52.068;4.414;2023-05-14T10:31:16;6.05;;;3.00;;
26965;SDS011;14522;52.068;4.414;2023-05-14T10:33:46;11.98;;;4.38;;
26965;SDS011;14522;52.068;4.414;2023-05-14T10:36:14;9.73;;;3.60;;
26965;SDS011;14522;52.068;4.414;2023-05-14T10:38:41;12.48;;;4.70;;
26965;SDS011;14522;52.068;4.414;2023-05-14T10:41:11;8.00;;;3.15;;
26965;SDS011;14522;52.068;4.414;2023-05-14T10:43:38;17.90;;;4.55;;
26965;SDS011;14522;52.068;4.414;2023-05-14T10:46:06;11.18;;;3.63;;
26965;SDS011;14522;52.068;4.414;2023-05-14T10:48:32;12.55;;;4.03;;
26965;SDS011;14522;52.068;4.414;2023-05-14T10:50:59;11.43;;;3.30;;
26965;SDS011;14522;52.068;4.414;2023-05-14T10:53:33;12.95;;;3.65;;
26965;SDS011;14522;52.068;4.414;2023-05-14T10:56:04;9.23;;;3.10;;
26965;SDS011;14522;52.068;4.414;2023-05-14T10:58:31;10.35;;;3.03;;
26965;SDS011;14522;52.068;4.414;2023-05-14T11:01:00;7.90;;;3.35;;
26965;SDS011;14522;52.068;4.414;2023-05-14T11:03:30;13.00;;;3.47;;
26965;SDS011;14522;52.068;4.414;2023-05-14T11:05:58;13.30;;;3.22;;
26965;SDS011;14522;52.068;4.414;2023-05-14T11:08:27;12.07;;;3.38;;
26965;SDS011;14522;52.068;4.414;2023-05-14T11:10:54;8.50;;;2.90;;
26965;SDS011;14522;52.068;4.414;2023-05-14T11:13:21;9.93;;;3.22;;
26965;SDS011;14522;52.068;4.414;2023-05-14T11:15:47;12.57;;;3.20;;
26965;SDS011;14522;52.068;4.414;2023-05-14T11:18:25;12.77;;;3.40;;
26965;SDS011;14522;52.068;4.414;2023-05-14T11:20:51;14.00;;;4.13;;
26965;SDS011;14522;52.068;4.414;2023-05-14T11:23:17;13.15;;;3.17;;
26965;SDS011;14522;52.068;4.414;2023-05-14T11:25:46;13.13;;;3.30;;
26965;SDS011;14522;52.068;4.414;2023-05-14T11:28:12;12.00;;;3.30;;
26965;SDS011;14522;52.068;4.414;2023-05-14T11:30:39;10.45;;;3.13;;
26965;SDS011;14522;52.068;4.414;2023-05-14T11:33:05;8.55;;;3.38;;
26965;SDS011;14522;52.068;4.414;2023-05-14T11:35:31;10.77;;;3.35;;
26965;SDS011;14522;52.068;4.414;2023-05-14T11:37:58;15.02;;;3.05;;
26965;SDS011;14522;52.068;4.414;2023-05-14T11:40:24;10.75;;;2.17;;
26965;SDS011;14522;52.068;4.414;2023-05-14T11:42:51;12.95;;;2.90;;
26965;SDS011;14522;52.068;4.414;2023-05-14T11:45:25;14.07;;;3.22;;
26965;SDS011;14522;52.068;4.414;2023-05-14T11:47:52;13.25;;;3.05;;
26965;SDS011;14522;52.068;4.414;2023-05-14T11:50:20;11.15;;;3.38;;
26965;SDS011;14522;52.068;4.414;2023-05-14T11:52:47;9.88;;;3.28;;
26965;SDS011;14522;52.068;4.414;2023-05-14T11:55:16;7.07;;;2.83;;
26965;SDS011;14522;52.068;4.414;2023-05-14T11:57:42;9.80;;;3.38;;
26965;SDS011;14522;52.068;4.414;2023-05-14T12:00:09;15.35;;;4.03;;
26965;SDS011;14522;52.068;4.414;2023-05-14T12:02:39;15.27;;;3.83;;
26965;SDS011;14522;52.068;4.414;2023-05-14T12:05:06;9.52;;;3.72;;
26965;SDS011;14522;52.068;4.414;2023-05-14T12:07:34;10.65;;;3.17;;
26965;SDS011;14522;52.068;4.414;2023-05-14T12:10:01;9.60;;;3.70;;
26965;SDS011;14522;52.068;4.414;2023-05-14T12:12:32;11.00;;;3.60;;
26965;SDS011;14522;52.068;4.414;2023-05-14T12:14:59;9.10;;;2.88;;
26965;SDS011;14522;52.068;4.414;2023-05-14T12:17:25;19.60;;;3.67;;
26965;SDS011;14522;52.068;4.414;2023-05-14T12:19:52;9.68;;;2.95;;
26965;SDS011;14522;52.068;4.414;2023-05-14T12:22:20;8.60;;;3.10;;
26965;SDS011;14522;52.068;4.414;2023-05-14T12:24:57;11.93;;;3.35;;
26965;SDS011;14522;52.068;4.414;2023-05-14T12:27:27;14.23;;;3.63;;
26965;SDS011;14522;52.068;4.414;2023-05-14T12:30:03;11.23;;;3.50;;
26965;SDS011;14522;52.068;4.414;2023-05-14T12:32:33;12.40;;;3.50;;
26965;SDS011;14522;52.068;4.414;2023-05-14T12:35:00;10.80;;;3.42;;
26965;SDS011;14522;52.068;4.414;2023-05-14T12:37:27;11.35;;;4.05;;
26965;SDS011;14522;52.068;4.414;2023-05-14T12:39:56;12.98;;;3.75;;
26965;SDS011;14522;52.068;4.414;2023-05-14T12:42:22;10.65;;;3.65;;
26965;SDS011;14522;52.068;4.414;2023-05-14T12:44:49;12.93;;;3.10;;
26965;SDS011;14522;52.068;4.414;2023-05-14T12:47:15;10.32;;;3.05;;
26965;SDS011;14522;52.068;4.414;2023-05-14T12:49:42;9.35;;;3.42;;
26965;SDS011;14522;52.068;4.414;2023-05-14T12:52:08;12.55;;;3.60;;
26965;SDS011;14522;52.068;4.414;2023-05-14T12:54:55;7.07;;;2.50;;
26965;SDS011;14522;52.068;4.414;2023-05-14T12:57:21;10.93;;;3.47;;
26965;SDS011;14522;52.068;4.414;2023-05-14T12:59:47;13.30;;;3.67;;
26965;SDS011;14522;52.068;4.414;2023-05-14T13:02:14;12.80;;;3.70;;
26965;SDS011;14522;52.068;4.414;2023-05-14T13:04:42;14.75;;;4.60;;
26965;SDS011;14522;52.068;4.414;2023-05-14T13:07:09;12.25;;;3.53;;
26965;SDS011;14522;52.068;4.414;2023-05-14T13:09:35;7.38;;;2.53;;
26965;SDS011;14522;52.068;4.414;2023-05-14T13:12:02;8.63;;;2.63;;
26965;SDS011;14522;52.068;4.414;2023-05-14T13:14:29;6.53;;;2.67;;
26965;SDS011;14522;52.068;4.414;2023-05-14T13:16:55;15.07;;;3.90;;
26965;SDS011;14522;52.068;4.414;2023-05-14T13:19:22;9.10;;;2.63;;
26965;SDS011;14522;52.068;4.414;2023-05-14T13:21:48;8.82;;;2.90;;
26965;SDS011;14522;52.068;4.414;2023-05-14T13:24:15;8.63;;;3.08;;
26965;SDS011;14522;52.068;4.414;2023-05-14T13:26:42;10.38;;;3.45;;
26965;SDS011;14522;52.068;4.414;2023-05-14T13:29:10;15.20;;;3.75;;
26965;SDS011;14522;52.068;4.414;2023-05-14T13:31:36;12.45;;;3.28;;
26965;SDS011;14522;52.068;4.414;2023-05-14T13:34:03;12.20;;;3.38;;
26965;SDS011;14522;52.068;4.414;2023-05-14T13:36:29;6.22;;;2.58;;
26965;SDS011;14522;52.068;4.414;2023-05-14T13:38:57;11.45;;;2.90;;
26965;SDS011;14522;52.068;4.414;2023-05-14T13:41:24;13.48;;;3.35;;
26965;SDS011;14522;52.068;4.414;2023-05-14T13:43:51;10.25;;;3.42;;
26965;SDS011;14522;52.068;4.414;2023-05-14T13:46:17;10.93;;;3.08;;
26965;SDS011;14522;52.068;4.414;2023-05-14T13:48:44;6.80;;;2.13;;
26965;SDS011;14522;52.068;4.414;2023-05-14T13:51:10;16.65;;;4.22;;
26965;SDS011;14522;52.068;4.414;2023-05-14T13:53:36;9.88;;;3.20;;
26965;SDS011;14522;52.068;4.414;2023-05-14T13:56:03;16.58;;;4.43;;
26965;SDS011;14522;52.068;4.414;2023-05-14T13:58:31;11.60;;;2.58;;
26965;SDS011;14522;52.068;4.414;2023-05-14T14:00:57;9.60;;;2.85;;
26965;SDS011;14522;52.068;4.414;2023-05-14T14:03:24;7.90;;;2.58;;
26965;SDS011;14522;52.068;4.414;2023-05-14T14:05:50;7.22;;;3.00;;
26965;SDS011;14522;52.068;4.414;2023-05-14T14:08:17;9.45;;;2.60;;
26965;SDS011;14522;52.068;4.414;2023-05-14T14:10:49;15.40;;;3.78;;
26965;SDS011;14522;52.068;4.414;2023-05-14T14:13:16;10.90;;;2.55;;
26965;SDS011;14522;52.068;4.414;2023-05-14T14:15:42;7.85;;;2.58;;
26965;SDS011;14522;52.068;4.414;2023-05-14T14:18:09;8.30;;;2.58;;
26965;SDS011;14522;52.068;4.414;2023-05-14T14:20:36;7.72;;;2.28;;
26965;SDS011;14522;52.068;4.414;2023-05-14T14:23:02;7.43;;;2.20;;
26965;SDS011;14522;52.068;4.414;2023-05-14T14:25:29;10.00;;;3.10;;
26965;SDS011;14522;52.068;4.414;2023-05-14T14:27:55;10.05;;;2.55;;
26965;SDS011;14522;52.068;4.414;2023-05-14T14:30:21;4.72;;;1.98;;
26965;SDS011;14522;52.068;4.414;2023-05-14T14:32:48;9.45;;;2.50;;
26965;SDS011;14522;52.068;4.414;2023-05-14T14:35:15;9.93;;;2.75;;
26965;SDS011;14522;52.068;4.414;2023-05-14T14:37:42;3.67;;;2.15;;
26965;SDS011;14522;52.068;4.414;2023-05-14T14:40:10;9.50;;;2.92;;
26965;SDS011;14522;52.068;4.414;2023-05-14T14:42:37;6.47;;;2.13;;